TimeMDT,TemperatureF,Dew PointF,Humidity,Sea Level PressureIn,VisibilityMPH,Wind Direction,Wind SpeedMPH,Gust SpeedMPH,PrecipitationIn,Events,Conditions,WindDirDegrees,DateUTC
12:00 AM,19,16,85,,,WSW,2.3,,,,,250,2012-10-04 06:00:00
12:00 AM,18.7,16.3,91,-9999,-9999.0,WSW,2.3,-,N/A,,Unknown,250,2012-10-04 06:00:00
1:00 AM,17.6,15.8,93,-9999,-9999.0,WSW,3.5,-,N/A,,Unknown,250,2012-10-04 07:00:00
2:00 AM,16.2,14.0,91,-9999,-9999.0,SW,5.8,-,N/A,,Unknown,230,2012-10-04 08:00:00
3:00 AM,17.1,14.7,91,-9999,-9999.0,SW,4.6,-,N/A,,Unknown,230,2012-10-04 09:00:00
4:00 AM,14.7,11.7,88,-9999,-9999.0,Calm,Calm,-,N/A,,Unknown,0,2012-10-04 10:00:00
5:00 AM,16.2,14.0,91,-9999,-9999.0,SW,5.8,-,N/A,,Unknown,220,2012-10-04 11:00:00
6:00 AM,17,14,84,,,SW,4.6,,,,,220,2012-10-04 12:00:00
6:00 AM,16.5,14.4,91,-9999,-9999.0,SW,4.6,-,N/A,,Unknown,220,2012-10-04 12:00:00
7:00 AM,13.1,10.0,88,-9999,-9999.0,Calm,Calm,-,N/A,,Unknown,0,2012-10-04 13:00:00
8:00 AM,12.2,9.1,88,-9999,-9999.0,Calm,Calm,-,N/A,,Unknown,0,2012-10-04 14:00:00
9:00 AM,19.2,15.1,84,-9999,-9999.0,West,3.5,-,N/A,,Unknown,260,2012-10-04 15:00:00
10:00 AM,26.8,20.3,77,-9999,-9999.0,Calm,Calm,-,N/A,,Unknown,0,2012-10-04 16:00:00
11:00 AM,30.4,21.6,70,-9999,-9999.0,NNE,2.3,-,N/A,,Unknown,20,2012-10-04 17:00:00
12:00 PM,35,25,55,,,NE,2.3,,,,,40,2012-10-04 18:00:00
12:00 PM,34.5,24.6,67,-9999,-9999.0,NE,2.3,-,N/A,,Unknown,40,2012-10-04 18:00:00
1:00 PM,36.0,24.8,64,-9999,-9999.0,NE,4.6,-,N/A,,Unknown,50,2012-10-04 19:00:00
2:00 PM,35.8,24.1,62,-9999,-9999.0,ENE,6.9,-,N/A,,Unknown,60,2012-10-04 20:00:00
3:00 PM,35.8,24.3,63,-9999,-9999.0,ENE,6.9,-,N/A,,Unknown,60,2012-10-04 21:00:00
4:00 PM,36.7,23.9,60,-9999,-9999.0,ENE,4.6,-,N/A,,Unknown,70,2012-10-04 22:00:00
5:00 PM,35.8,24.3,63,-9999,-9999.0,ENE,5.8,-,N/A,,Unknown,70,2012-10-04 23:00:00
6:00 PM,34,24,56,,,ENE,5.8,,,,,70,2012-10-05 00:00:00
6:00 PM,34.2,24.1,67,-9999,-9999.0,ENE,5.8,-,N/A,,Unknown,70,2012-10-05 00:00:00
7:00 PM,29.8,23.5,77,-9999,-9999.0,ENE,1.2,-,N/A,,Unknown,70,2012-10-05 01:00:00
8:00 PM,24.3,21.4,89,-9999,-9999.0,Calm,Calm,-,N/A,,Unknown,0,2012-10-05 02:00:00
9:00 PM,21.7,19.8,92,-9999,-9999.0,West,2.3,-,N/A,,Unknown,260,2012-10-05 03:00:00
10:00 PM,22.3,20.1,91,-9999,-9999.0,SW,3.5,-,N/A,,Unknown,230,2012-10-05 04:00:00
11:00 PM,22.8,20.5,91,-9999,-9999.0,SSW,6.9,-,N/A,,Unknown,210,2012-10-05 05:00:00